sensor_id;sensor_type;location;lat;lon;timestamp;pressure;altitude;pressure_sealevel;temperature;humidity
14295;BME280;7231;59.370;18.016;2023-04-05T00:01:05;102429.84;;;-2.07;64.88
14295;BME280;7231;59.370;18.016;2023-04-05T00:03:34;102427.84;;;-2.09;64.92
14295;BME280;7231;59.370;18.016;2023-04-05T00:06:02;102427.84;;;-2.09;65.07
14295;BME280;7231;59.370;18.016;2023-04-05T00:08:31;102423.47;;;-2.10;65.22
14295;BME280;7231;59.370;18.016;2023-04-05T00:10:59;102403.47;;;-2.21;65.44
14295;BME280;7231;59.370;18.016;2023-04-05T00:13:27;102414.38;;;-2.15;65.72
14295;BME280;7231;59.370;18.016;2023-04-05T00:15:57;102422.84;;;-2.16;65.81
14295;BME280;7231;59.370;18.016;2023-04-05T00:18:26;102417.38;;;-2.19;65.65
14295;BME280;7231;59.370;18.016;2023-04-05T00:21:00;102419.78;;;-2.21;66.15
14295;BME280;7231;59.370;18.016;2023-04-05T00:23:28;102418.56;;;-2.24;66.23
14295;BME280;7231;59.370;18.016;2023-04-05T00:26:03;102416.59;;;-2.27;66.30
14295;BME280;7231;59.370;18.016;2023-04-05T00:28:31;102415.66;;;-2.28;66.76
14295;BME280;7231;59.370;18.016;2023-04-05T00:31:00;102415.34;;;-2.31;66.48
14295;BME280;7231;59.370;18.016;2023-04-05T00:33:28;102413.38;;;-2.33;66.65
14295;BME280;7231;59.370;18.016;2023-04-05T00:35:56;102408.06;;;-2.35;66.99
14295;BME280;7231;59.370;18.016;2023-04-05T00:38:24;102407.00;;;-2.37;67.18
14295;BME280;7231;59.370;18.016;2023-04-05T00:40:52;102412.72;;;-2.39;67.14
14295;BME280;7231;59.370;18.016;2023-04-05T00:43:20;102414.22;;;-2.41;67.41
14295;BME280;7231;59.370;18.016;2023-04-05T00:45:48;102408.19;;;-2.42;67.80
14295;BME280;7231;59.370;18.016;2023-04-05T00:48:18;102334.25;;;-2.86;67.77
14295;BME280;7231;59.370;18.016;2023-04-05T00:50:48;102401.06;;;-2.44;67.84
14295;BME280;7231;59.370;18.016;2023-04-05T00:53:17;102402.72;;;-2.45;67.95
14295;BME280;7231;59.370;18.016;2023-04-05T00:55:46;102332.25;;;-2.88;67.83
14295;BME280;7231;59.370;18.016;2023-04-05T00:58:15;102401.19;;;-2.51;68.02
14295;BME280;7231;59.370;18.016;2023-04-05T01:00:53;102404.34;;;-2.54;68.50
14295;BME280;7231;59.370;18.016;2023-04-05T01:03:28;102393.28;;;-2.62;68.54
14295;BME280;7231;59.370;18.016;2023-04-05T01:06:05;102403.84;;;-2.58;68.88
14295;BME280;7231;59.370;18.016;2023-04-05T01:08:44;102389.59;;;-2.72;68.95
14295;BME280;7231;59.370;18.016;2023-04-05T01:11:14;102395.53;;;-2.65;68.77
14295;BME280;7231;59.370;18.016;2023-04-05T01:13:44;102390.56;;;-2.63;68.76
14295;BME280;7231;59.370;18.016;2023-04-05T01:16:13;102395.38;;;-2.66;69.30
14295;BME280;7231;59.370;18.016;2023-04-05T01:18:42;102381.47;;;-2.68;69.32
14295;BME280;7231;59.370;18.016;2023-04-05T01:24:28;102370.56;;;-2.74;69.23
14295;BME280;7231;59.370;18.016;2023-04-05T01:27:03;102382.66;;;-2.73;69.34
14295;BME280;7231;59.370;18.016;2023-04-05T01:29:53;102383.41;;;-2.74;70.26
14295;BME280;7231;59.370;18.016;2023-04-05T01:32:38;102296.84;;;-3.24;69.96
14295;BME280;7231;59.370;18.016;2023-04-05T01:35:12;102375.38;;;-2.77;69.88
14295;BME280;7231;59.370;18.016;2023-04-05T01:37:48;102346.91;;;-2.87;70.09
14295;BME280;7231;59.370;18.016;2023-04-05T01:40:19;102365.84;;;-2.78;70.21
14295;BME280;7231;59.370;18.016;2023-04-05T01:42:48;102369.28;;;-2.86;70.09
14295;BME280;7231;59.370;18.016;2023-04-05T01:45:17;102370.22;;;-2.77;70.50
14295;BME280;7231;59.370;18.016;2023-04-05T01:47:45;102375.38;;;-2.77;70.52
14295;BME280;7231;59.370;18.016;2023-04-05T01:50:14;102359.06;;;-2.78;70.76
14295;BME280;7231;59.370;18.016;2023-04-05T01:52:42;102362.53;;;-2.77;70.68
14295;BME280;7231;59.370;18.016;2023-04-05T01:55:10;102272.47;;;-3.36;70.66
14295;BME280;7231;59.370;18.016;2023-04-05T01:57:38;102369.00;;;-2.81;70.90
14295;BME280;7231;59.370;18.016;2023-04-05T02:00:07;102369.75;;;-2.82;71.04
14295;BME280;7231;59.370;18.016;2023-04-05T02:02:37;102364.47;;;-2.83;71.52
14295;BME280;7231;59.370;18.016;2023-04-05T02:05:06;102265.03;;;-3.42;71.39
14295;BME280;7231;59.370;18.016;2023-04-05T02:07:34;102365.03;;;-2.86;71.62
14295;BME280;7231;59.370;18.016;2023-04-05T02:10:03;102304.72;;;-3.22;71.44
14295;BME280;7231;59.370;18.016;2023-04-05T02:12:31;102356.28;;;-2.88;71.46
14295;BME280;7231;59.370;18.016;2023-04-05T02:14:59;102346.59;;;-2.90;72.05
14295;BME280;7231;59.370;18.016;2023-04-05T02:17:27;102328.94;;;-3.12;71.79
14295;BME280;7231;59.370;18.016;2023-04-05T02:20:08;102352.56;;;-2.99;72.32
14295;BME280;7231;59.370;18.016;2023-04-05T02:22:38;102271.66;;;-3.44;72.19
14295;BME280;7231;59.370;18.016;2023-04-05T02:25:07;102319.84;;;-3.17;72.13
14295;BME280;7231;59.370;18.016;2023-04-05T02:27:35;102349.69;;;-3.02;72.68
14295;BME280;7231;59.370;18.016;2023-04-05T02:30:04;102346.31;;;-3.09;72.47
14295;BME280;7231;59.370;18.016;2023-04-05T02:32:32;102337.47;;;-3.20;72.70
14295;BME280;7231;59.370;18.016;2023-04-05T02:35:00;102351.28;;;-3.11;72.68
14295;BME280;7231;59.370;18.016;2023-04-05T02:37:29;102329.78;;;-3.20;73.07
14295;BME280;7231;59.370;18.016;2023-04-05T02:39:58;102325.06;;;-3.24;72.71
14295;BME280;7231;59.370;18.016;2023-04-05T02:42:26;102254.97;;;-3.56;72.92
14295;BME280;7231;59.370;18.016;2023-04-05T02:44:54;102332.56;;;-3.10;73.02
14295;BME280;7231;59.370;18.016;2023-04-05T02:47:22;102337.69;;;-3.10;72.96
14295;BME280;7231;59.370;18.016;2023-04-05T02:49:50;102330.91;;;-3.09;72.95
14295;BME280;7231;59.370;18.016;2023-04-05T02:52:18;102258.78;;;-3.52;73.05
14295;BME280;7231;59.370;18.016;2023-04-05T02:54:48;102329.50;;;-3.14;73.61
14295;BME280;7231;59.370;18.016;2023-04-05T02:57:17;102336.88;;;-3.17;73.57
14295;BME280;7231;59.370;18.016;2023-04-05T02:59:45;102331.44;;;-3.20;73.26
14295;BME280;7231;59.370;18.016;2023-04-05T03:02:13;102327.03;;;-3.21;73.51
14295;BME280;7231;59.370;18.016;2023-04-05T03:04:41;102292.50;;;-3.41;73.57
14295;BME280;7231;59.370;18.016;2023-04-05T03:07:10;102329.13;;;-3.26;73.94
14295;BME280;7231;59.370;18.016;2023-04-05T03:09:40;102314.47;;;-3.27;73.98
14295;BME280;7231;59.370;18.016;2023-04-05T03:12:11;102312.81;;;-3.27;74.34
14295;BME280;7231;59.370;18.016;2023-04-05T03:14:39;102326.41;;;-3.28;74.01
14295;BME280;7231;59.370;18.016;2023-04-05T03:17:07;102320.53;;;-3.27;74.07
14295;BME280;7231;59.370;18.016;2023-04-05T03:19:35;102317.63;;;-3.30;74.34
14295;BME280;7231;59.370;18.016;2023-04-05T03:22:04;102320.03;;;-3.31;74.32
14295;BME280;7231;59.370;18.016;2023-04-05T03:24:33;102320.78;;;-3.32;74.07
14295;BME280;7231;59.370;18.016;2023-04-05T03:27:01;102266.66;;;-3.67;74.40
14295;BME280;7231;59.370;18.016;2023-04-05T03:29:32;102269.03;;;-3.68;74.54
14295;BME280;7231;59.370;18.016;2023-04-05T03:32:01;102319.06;;;-3.40;74.92
14295;BME280;7231;59.370;18.016;2023-04-05T03:34:29;102289.53;;;-3.52;74.73
14295;BME280;7231;59.370;18.016;2023-04-05T03:36:57;102310.44;;;-3.41;74.77
14295;BME280;7231;59.370;18.016;2023-04-05T03:39:25;102305.91;;;-3.43;75.01
14295;BME280;7231;59.370;18.016;2023-04-05T03:41:53;102309.38;;;-3.43;75.00
14295;BME280;7231;59.370;18.016;2023-04-05T03:44:22;102303.34;;;-3.43;75.06
14295;BME280;7231;59.370;18.016;2023-04-05T03:46:51;102312.84;;;-3.42;75.07
14295;BME280;7231;59.370;18.016;2023-04-05T03:49:19;102278.28;;;-3.62;74.94
14295;BME280;7231;59.370;18.016;2023-04-05T03:51:47;102310.28;;;-3.42;75.69
14295;BME280;7231;59.370;18.016;2023-04-05T03:54:15;102305.47;;;-3.39;75.48
14295;BME280;7231;59.370;18.016;2023-04-05T03:56:43;102321.19;;;-3.36;75.88
14295;BME280;7231;59.370;18.016;2023-04-05T03:59:11;102248.03;;;-3.73;75.81
14295;BME280;7231;59.370;18.016;2023-04-05T04:01:39;102305.22;;;-3.34;75.91
14295;BME280;7231;59.370;18.016;2023-04-05T04:04:09;102312.16;;;-3.33;75.51
14295;BME280;7231;59.370;18.016;2023-04-05T04:06:39;102310.53;;;-3.32;76.07
14295;BME280;7231;59.370;18.016;2023-04-05T04:09:07;102303.56;;;-3.33;75.91
14295;BME280;7231;59.370;18.016;2023-04-05T04:11:35;102280.19;;;-3.52;76.07
14295;BME280;7231;59.370;18.016;2023-04-05T04:14:03;102317.88;;;-3.35;76.34
14295;BME280;7231;59.370;18.016;2023-04-05T04:16:31;102212.94;;;-3.89;76.39
14295;BME280;7231;59.370;18.016;2023-04-05T04:18:59;102282.75;;;-3.52;76.25
14295;BME280;7231;59.370;18.016;2023-04-05T04:21:28;102312.16;;;-3.33;76.52
14295;BME280;7231;59.370;18.016;2023-04-05T04:23:58;102310.53;;;-3.32;76.84
14295;BME280;7231;59.370;18.016;2023-04-05T04:26:26;102302.06;;;-3.31;77.04
14295;BME280;7231;59.370;18.016;2023-04-05T04:28:55;102210.28;;;-3.82;77.08
14295;BME280;7231;59.370;18.016;2023-04-05T04:31:23;102303.47;;;-3.26;77.32
14295;BME280;7231;59.370;18.016;2023-04-05T04:33:51;102304.53;;;-3.24;77.54
14295;BME280;7231;59.370;18.016;2023-04-05T04:36:21;102254.88;;;-3.49;77.45
14295;BME280;7231;59.370;18.016;2023-04-05T04:39:01;102311.22;;;-3.17;77.92
14295;BME280;7231;59.370;18.016;2023-04-05T04:41:32;102257.66;;;-3.39;77.79
14295;BME280;7231;59.370;18.016;2023-04-05T04:44:01;102212.13;;;-3.57;77.95
14295;BME280;7231;59.370;18.016;2023-04-05T04:46:31;102263.06;;;-3.20;78.26
14295;BME280;7231;59.370;18.016;2023-04-05T04:49:00;102221.19;;;-3.36;78.23
14295;BME280;7231;59.370;18.016;2023-04-05T04:51:31;102307.72;;;-2.78;78.40
14295;BME280;7231;59.370;18.016;2023-04-05T04:53:59;102309.25;;;-2.71;78.65
14295;BME280;7231;59.370;18.016;2023-04-05T04:56:28;102312.63;;;-2.64;78.61
14295;BME280;7231;59.370;18.016;2023-04-05T04:58:56;102304.03;;;-2.55;78.68
14295;BME280;7231;59.370;18.016;2023-04-05T05:01:24;102304.06;;;-2.47;78.98
14295;BME280;7231;59.370;18.016;2023-04-05T05:03:52;102167.41;;;-3.19;79.04
14295;BME280;7231;59.370;18.016;2023-04-05T05:06:20;102276.13;;;-2.44;79.20
14295;BME280;7231;59.370;18.016;2023-04-05T05:08:49;102295.53;;;-2.21;79.13
14295;BME280;7231;59.370;18.016;2023-04-05T05:11:16;102298.91;;;-2.14;79.82
14295;BME280;7231;59.370;18.016;2023-04-05T05:13:46;102291.97;;;-2.06;79.35
14295;BME280;7231;59.370;18.016;2023-04-05T05:16:18;102281.69;;;-2.06;79.79
14295;BME280;7231;59.370;18.016;2023-04-05T05:18:49;102300.47;;;-1.90;80.09
14295;BME280;7231;59.370;18.016;2023-04-05T05:21:17;102291.72;;;-1.83;79.82
14295;BME280;7231;59.370;18.016;2023-04-05T05:23:45;102297.63;;;-1.76;79.73
14295;BME280;7231;59.370;18.016;2023-04-05T05:26:13;102256.47;;;-1.93;80.05
14295;BME280;7231;59.370;18.016;2023-04-05T05:28:41;102295.66;;;-1.61;80.12
14295;BME280;7231;59.370;18.016;2023-04-05T05:31:10;102297.19;;;-1.54;80.05
14295;BME280;7231;59.370;18.016;2023-04-05T05:33:40;102219.41;;;-1.86;80.00
14295;BME280;7231;59.370;18.016;2023-04-05T05:36:08;102289.91;;;-1.41;80.30
14295;BME280;7231;59.370;18.016;2023-04-05T05:38:36;102265.41;;;-1.46;79.99
14295;BME280;7231;59.370;18.016;2023-04-05T05:41:04;102290.06;;;-1.31;80.16
14295;BME280;7231;59.370;18.016;2023-04-05T05:43:32;102138.69;;;-2.06;79.86
14295;BME280;7231;59.370;18.016;2023-04-05T05:46:00;102284.31;;;-1.20;80.68
14295;BME280;7231;59.370;18.016;2023-04-05T05:48:30;102280.81;;;-1.12;80.38
14295;BME280;7231;59.370;18.016;2023-04-05T05:50:58;102276.41;;;-1.04;80.44
14295;BME280;7231;59.370;18.016;2023-04-05T05:53:35;102276.09;;;-0.99;80.33
14295;BME280;7231;59.370;18.016;2023-04-05T05:56:04;102271.69;;;-0.91;80.40
14295;BME280;7231;59.370;18.016;2023-04-05T05:58:32;102215.59;;;-1.21;80.44
14295;BME280;7231;59.370;18.016;2023-04-05T06:01:01;102268.00;;;-0.76;80.53
14295;BME280;7231;59.370;18.016;2023-04-05T06:03:30;102259.19;;;-0.69;80.42
14295;BME280;7231;59.370;18.016;2023-04-05T06:05:59;102230.13;;;-0.77;80.16
14295;BME280;7231;59.370;18.016;2023-04-05T06:08:28;102256.31;;;-0.63;80.18
14295;BME280;7231;59.370;18.016;2023-04-05T06:10:57;102187.81;;;-0.98;80.08
14295;BME280;7231;59.370;18.016;2023-04-05T06:13:25;102236.50;;;-0.73;80.35
14295;BME280;7231;59.370;18.016;2023-04-05T06:15:53;102251.28;;;-0.62;80.31
14295;BME280;7231;59.370;18.016;2023-04-05T06:18:21;102218.00;;;-0.69;80.19
14295;BME280;7231;59.370;18.016;2023-04-05T06:20:50;102233.50;;;-0.50;80.39
14295;BME280;7231;59.370;18.016;2023-04-05T06:23:21;102207.94;;;-0.57;80.35
14295;BME280;7231;59.370;18.016;2023-04-05T06:25:49;102152.88;;;-0.77;80.37
14295;BME280;7231;59.370;18.016;2023-04-05T06:28:17;102224.78;;;-0.34;80.02
14295;BME280;7231;59.370;18.016;2023-04-05T06:30:45;102149.34;;;-0.69;80.29
14295;BME280;7231;59.370;18.016;2023-04-05T06:33:13;102176.97;;;-0.49;80.20
14295;BME280;7231;59.370;18.016;2023-04-05T06:35:41;102225.94;;;-0.21;80.07
14295;BME280;7231;59.370;18.016;2023-04-05T06:38:11;102207.31;;;-0.27;80.13
14295;BME280;7231;59.370;18.016;2023-04-05T06:40:39;102222.66;;;-0.10;80.02
14295;BME280;7231;59.370;18.016;2023-04-05T06:43:07;102216.56;;;-0.02;80.63
14295;BME280;7231;59.370;18.016;2023-04-05T06:45:36;102193.06;;;-0.05;80.44
14295;BME280;7231;59.370;18.016;2023-04-05T06:48:04;102212.28;;;0.17;80.01
14295;BME280;7231;59.370;18.016;2023-04-05T06:50:32;102122.81;;;-0.21;80.02
14295;BME280;7231;59.370;18.016;2023-04-05T06:53:01;102216.03;;;0.40;79.98
14295;BME280;7231;59.370;18.016;2023-04-05T06:55:31;102191.50;;;0.35;79.90
14295;BME280;7231;59.370;18.016;2023-04-05T06:57:59;102195.44;;;0.50;79.78
14295;BME280;7231;59.370;18.016;2023-04-05T07:00:27;102216.06;;;0.69;79.46
14295;BME280;7231;59.370;18.016;2023-04-05T07:02:55;102203.56;;;0.73;79.18
14295;BME280;7231;59.370;18.016;2023-04-05T07:05:23;102208.50;;;0.80;78.76
14295;BME280;7231;59.370;18.016;2023-04-05T07:07:51;102168.44;;;0.65;78.80
14295;BME280;7231;59.370;18.016;2023-04-05T07:10:19;102201.63;;;1.00;78.67
14295;BME280;7231;59.370;18.016;2023-04-05T07:12:48;102206.19;;;1.12;78.81
14295;BME280;7231;59.370;18.016;2023-04-05T07:15:16;102207.78;;;1.30;78.34
14295;BME280;7231;59.370;18.016;2023-04-05T07:17:44;102140.19;;;1.16;78.31
14295;BME280;7231;59.370;18.016;2023-04-05T07:20:12;102206.81;;;1.79;77.85
14295;BME280;7231;59.370;18.016;2023-04-05T07:22:42;102206.16;;;2.02;77.89
14295;BME280;7231;59.370;18.016;2023-04-05T07:25:10;102193.22;;;2.02;76.74
14295;BME280;7231;59.370;18.016;2023-04-05T07:27:38;102181.22;;;1.92;76.29
14295;BME280;7231;59.370;18.016;2023-04-05T07:30:08;102223.22;;;2.20;74.41
14295;BME280;7231;59.370;18.016;2023-04-05T07:32:36;102235.41;;;2.11;74.36
14295;BME280;7231;59.370;18.016;2023-04-05T07:35:05;102225.94;;;2.02;73.14
14295;BME280;7231;59.370;18.016;2023-04-05T07:37:34;102138.16;;;1.42;73.07
14295;BME280;7231;59.370;18.016;2023-04-05T07:40:03;102188.19;;;1.63;72.51
14295;BME280;7231;59.370;18.016;2023-04-05T07:42:31;102226.59;;;1.89;73.01
14295;BME280;7231;59.370;18.016;2023-04-05T07:45:00;102226.47;;;1.87;72.13
14295;BME280;7231;59.370;18.016;2023-04-05T07:47:31;102222.31;;;1.79;71.92
14295;BME280;7231;59.370;18.016;2023-04-05T07:49:59;102222.47;;;1.81;71.64
14295;BME280;7231;59.370;18.016;2023-04-05T07:52:27;102230.47;;;1.84;70.49
14295;BME280;7231;59.370;18.016;2023-04-05T07:54:55;102217.94;;;1.78;70.66
14295;BME280;7231;59.370;18.016;2023-04-05T07:57:23;102208.22;;;1.86;70.39
14295;BME280;7231;59.370;18.016;2023-04-05T07:59:52;102179.41;;;1.81;70.26
14295;BME280;7231;59.370;18.016;2023-04-05T08:02:21;102208.63;;;2.11;70.34
14295;BME280;7231;59.370;18.016;2023-04-05T08:04:50;102190.75;;;2.14;69.77
14295;BME280;7231;59.370;18.016;2023-04-05T08:07:18;102210.78;;;2.26;69.52
14295;BME280;7231;59.370;18.016;2023-04-05T08:09:47;102205.09;;;2.31;68.45
14295;BME280;7231;59.370;18.016;2023-04-05T08:12:14;102205.88;;;2.30;68.06
14295;BME280;7231;59.370;18.016;2023-04-05T08:14:43;102181.84;;;2.10;68.06
14295;BME280;7231;59.370;18.016;2023-04-05T08:17:10;102202.78;;;2.23;67.31
14295;BME280;7231;59.370;18.016;2023-04-05T08:19:40;102193.34;;;2.24;67.08
14295;BME280;7231;59.370;18.016;2023-04-05T08:22:09;102190.63;;;2.22;67.48
14295;BME280;7231;59.370;18.016;2023-04-05T08:24:38;102190.88;;;2.25;66.55
14295;BME280;7231;59.370;18.016;2023-04-05T08:27:06;102182.81;;;2.33;67.22
14295;BME280;7231;59.370;18.016;2023-04-05T08:29:34;102176.84;;;2.44;66.89
14295;BME280;7231;59.370;18.016;2023-04-05T08:32:03;102182.25;;;2.57;66.85
14295;BME280;7231;59.370;18.016;2023-04-05T08:34:31;102179.34;;;2.64;66.34
14295;BME280;7231;59.370;18.016;2023-04-05T08:37:00;102090.75;;;2.14;65.81
14295;BME280;7231;59.370;18.016;2023-04-05T08:39:30;102176.63;;;2.63;65.50
14295;BME280;7231;59.370;18.016;2023-04-05T08:42:05;102176.50;;;2.61;65.33
14295;BME280;7231;59.370;18.016;2023-04-05T08:44:36;102183.28;;;2.59;64.99
14295;BME280;7231;59.370;18.016;2023-04-05T08:47:04;102174.22;;;2.54;64.83
14295;BME280;7231;59.370;18.016;2023-04-05T08:49:32;102170.38;;;2.49;64.67
14295;BME280;7231;59.370;18.016;2023-04-05T08:52:01;102175.28;;;2.46;64.24
14295;BME280;7231;59.370;18.016;2023-04-05T08:54:31;102145.44;;;2.29;64.82
14295;BME280;7231;59.370;18.016;2023-04-05T08:56:59;102039.28;;;1.65;64.36
14295;BME280;7231;59.370;18.016;2023-04-05T08:59:29;102169.59;;;2.50;64.25
14295;BME280;7231;59.370;18.016;2023-04-05T09:01:58;102168.56;;;2.48;64.38
14295;BME280;7231;59.370;18.016;2023-04-05T09:04:29;102117.63;;;2.26;64.20
14295;BME280;7231;59.370;18.016;2023-04-05T09:07:00;102099.91;;;2.21;64.35
14295;BME280;7231;59.370;18.016;2023-04-05T09:09:32;102167.28;;;2.65;64.59
14295;BME280;7231;59.370;18.016;2023-04-05T09:12:03;102164.53;;;2.73;64.51
14295;BME280;7231;59.370;18.016;2023-04-05T09:14:33;102164.88;;;2.88;64.47
14295;BME280;7231;59.370;18.016;2023-04-05T09:17:01;102159.88;;;3.01;63.95
14295;BME280;7231;59.370;18.016;2023-04-05T09:19:30;102147.34;;;3.17;64.28
14295;BME280;7231;59.370;18.016;2023-04-05T09:22:02;102163.13;;;3.42;63.68
14295;BME280;7231;59.370;18.016;2023-04-05T09:24:36;102159.91;;;3.56;63.52
14295;BME280;7231;59.370;18.016;2023-04-05T09:27:09;102159.75;;;3.77;63.70
14295;BME280;7231;59.370;18.016;2023-04-05T09:29:38;102150.44;;;4.02;63.18
14295;BME280;7231;59.370;18.016;2023-04-05T09:32:08;102143.78;;;4.29;62.85
14295;BME280;7231;59.370;18.016;2023-04-05T09:34:37;102088.47;;;4.18;62.51
14295;BME280;7231;59.370;18.016;2023-04-05T09:37:12;102140.03;;;4.72;61.65
14295;BME280;7231;59.370;18.016;2023-04-05T09:39:42;102153.00;;;4.84;60.89
14295;BME280;7231;59.370;18.016;2023-04-05T09:42:13;102143.72;;;4.87;60.21
14295;BME280;7231;59.370;18.016;2023-04-05T09:44:48;102142.31;;;4.68;59.70
14295;BME280;7231;59.370;18.016;2023-04-05T09:47:18;102103.84;;;4.27;59.29
14295;BME280;7231;59.370;18.016;2023-04-05T09:49:47;102144.69;;;4.30;58.87
14295;BME280;7231;59.370;18.016;2023-04-05T09:52:19;102150.31;;;4.12;59.25
14295;BME280;7231;59.370;18.016;2023-04-05T09:54:51;102125.34;;;3.79;59.15
14295;BME280;7231;59.370;18.016;2023-04-05T09:57:21;102149.03;;;3.84;59.65
14295;BME280;7231;59.370;18.016;2023-04-05T09:59:52;102156.81;;;3.84;59.86
14295;BME280;7231;59.370;18.016;2023-04-05T10:02:21;102151.41;;;3.81;60.04
14295;BME280;7231;59.370;18.016;2023-04-05T10:04:50;102152.94;;;3.67;60.01
14295;BME280;7231;59.370;18.016;2023-04-05T10:07:18;102149.19;;;3.52;60.13
14295;BME280;7231;59.370;18.016;2023-04-05T10:09:48;102143.41;;;3.44;60.74
14295;BME280;7231;59.370;18.016;2023-04-05T10:12:23;102152.88;;;3.44;60.73
14295;BME280;7231;59.370;18.016;2023-04-05T10:14:53;102136.84;;;3.38;60.72
14295;BME280;7231;59.370;18.016;2023-04-05T10:17:23;102175.78;;;3.49;61.14
14295;BME280;7231;59.370;18.016;2023-04-05T10:20:01;102174.31;;;3.53;61.08
14295;BME280;7231;59.370;18.016;2023-04-05T10:22:36;102163.72;;;3.50;61.20
14295;BME280;7231;59.370;18.016;2023-04-05T10:25:12;102158.97;;;3.44;61.29
14295;BME280;7231;59.370;18.016;2023-04-05T10:27:46;102167.63;;;3.45;62.09
14295;BME280;7231;59.370;18.016;2023-04-05T10:30:15;102131.00;;;3.18;62.07
14295;BME280;7231;59.370;18.016;2023-04-05T10:32:55;102104.00;;;3.05;62.73
14295;BME280;7231;59.370;18.016;2023-04-05T10:35:30;102181.34;;;3.32;62.99
14295;BME280;7231;59.370;18.016;2023-04-05T10:38:12;102154.09;;;3.15;63.36
14295;BME280;7231;59.370;18.016;2023-04-05T10:40:46;102176.47;;;3.25;63.64
14295;BME280;7231;59.370;18.016;2023-04-05T10:43:18;102158.56;;;3.06;64.34
14295;BME280;7231;59.370;18.016;2023-04-05T10:45:51;102173.97;;;3.05;64.59
14295;BME280;7231;59.370;18.016;2023-04-05T10:48:28;102161.75;;;2.92;65.35
14295;BME280;7231;59.370;18.016;2023-04-05T10:51:03;102079.09;;;2.51;66.01
14295;BME280;7231;59.370;18.016;2023-04-05T10:53:33;102182.28;;;3.01;66.51
14295;BME280;7231;59.370;18.016;2023-04-05T10:56:02;102168.34;;;2.88;66.91
14295;BME280;7231;59.370;18.016;2023-04-05T10:58:31;102173.88;;;2.71;66.93
14295;BME280;7231;59.370;18.016;2023-04-05T11:01:02;102184.91;;;2.69;67.75
14295;BME280;7231;59.370;18.016;2023-04-05T11:03:40;102180.91;;;2.62;68.55
14295;BME280;7231;59.370;18.016;2023-04-05T11:06:24;102172.69;;;2.46;69.36
14295;BME280;7231;59.370;18.016;2023-04-05T11:08:59;102182.03;;;2.44;69.44
14295;BME280;7231;59.370;18.016;2023-04-05T11:11:37;102187.50;;;2.26;70.28
14295;BME280;7231;59.370;18.016;2023-04-05T11:14:17;102158.44;;;1.99;71.34
14295;BME280;7231;59.370;18.016;2023-04-05T11:16:46;102161.03;;;1.88;70.92
14295;BME280;7231;59.370;18.016;2023-04-05T11:19:16;102184.69;;;1.93;71.24
14295;BME280;7231;59.370;18.016;2023-04-05T11:21:44;102188.56;;;1.78;72.03
14295;BME280;7231;59.370;18.016;2023-04-05T11:24:13;102202.53;;;1.70;73.24
14295;BME280;7231;59.370;18.016;2023-04-05T11:26:54;102190.00;;;1.64;74.00
14295;BME280;7231;59.370;18.016;2023-04-05T11:29:45;102193.34;;;1.63;74.70
14295;BME280;7231;59.370;18.016;2023-04-05T11:32:15;102100.66;;;1.07;74.01
14295;BME280;7231;59.370;18.016;2023-04-05T11:34:44;102181.97;;;1.51;73.81
14295;BME280;7231;59.370;18.016;2023-04-05T11:37:14;102189.59;;;1.49;74.77
14295;BME280;7231;59.370;18.016;2023-04-05T11:39:42;102195.41;;;1.47;74.78
14295;BME280;7231;59.370;18.016;2023-04-05T11:42:11;102177.94;;;1.34;75.25
14295;BME280;7231;59.370;18.016;2023-04-05T11:44:42;102191.75;;;1.35;76.08
14295;BME280;7231;59.370;18.016;2023-04-05T11:47:10;102056.50;;;0.54;76.22
14295;BME280;7231;59.370;18.016;2023-04-05T11:49:48;102193.59;;;1.46;76.50
14295;BME280;7231;59.370;18.016;2023-04-05T11:52:18;102074.22;;;0.70;76.78
14295;BME280;7231;59.370;18.016;2023-04-05T11:54:47;102199.13;;;1.40;77.60
14295;BME280;7231;59.370;18.016;2023-04-05T11:57:18;102190.88;;;1.44;77.86
14295;BME280;7231;59.370;18.016;2023-04-05T11:59:48;102107.59;;;0.97;77.75
14295;BME280;7231;59.370;18.016;2023-04-05T12:02:17;102200.84;;;1.50;77.80
14295;BME280;7231;59.370;18.016;2023-04-05T12:04:53;102187.91;;;1.50;78.74
14295;BME280;7231;59.370;18.016;2023-04-05T12:07:25;102193.47;;;1.54;79.00
14295;BME280;7231;59.370;18.016;2023-04-05T12:10:04;102185.47;;;1.61;79.23
14295;BME280;7231;59.370;18.016;2023-04-05T12:12:35;102168.16;;;1.60;79.39
14295;BME280;7231;59.370;18.016;2023-04-05T12:15:05;102180.56;;;1.75;78.97
14295;BME280;7231;59.370;18.016;2023-04-05T12:17:42;102189.09;;;1.84;79.59
14295;BME280;7231;59.370;18.016;2023-04-05T12:20:13;102191.81;;;1.85;79.40
14295;BME280;7231;59.370;18.016;2023-04-05T12:22:43;102116.56;;;1.42;79.38
14295;BME280;7231;59.370;18.016;2023-04-05T12:25:12;102196.22;;;1.76;79.70
14295;BME280;7231;59.370;18.016;2023-04-05T12:27:40;102195.94;;;1.73;80.10
14295;BME280;7231;59.370;18.016;2023-04-05T12:30:11;102184.31;;;1.68;80.06
14295;BME280;7231;59.370;18.016;2023-04-05T12:32:45;102151.84;;;1.61;80.98
14295;BME280;7231;59.370;18.016;2023-04-05T12:35:17;102187.41;;;1.84;81.02
14295;BME280;7231;59.370;18.016;2023-04-05T12:37:45;102174.22;;;1.91;80.53
14295;BME280;7231;59.370;18.016;2023-04-05T12:40:19;102108.69;;;1.60;80.66
14295;BME280;7231;59.370;18.016;2023-04-05T12:42:47;102180.28;;;2.02;80.88
14295;BME280;7231;59.370;18.016;2023-04-05T12:45:16;102172.16;;;1.98;80.64
14295;BME280;7231;59.370;18.016;2023-04-05T12:47:51;102144.50;;;1.76;81.68
14295;BME280;7231;59.370;18.016;2023-04-05T12:50:26;102116.19;;;1.57;81.33
14295;BME280;7231;59.370;18.016;2023-04-05T12:52:56;102146.31;;;1.67;81.24
14295;BME280;7231;59.370;18.016;2023-04-05T12:55:25;102107.66;;;1.48;81.77
14295;BME280;7231;59.370;18.016;2023-04-05T12:57:55;102166.72;;;1.84;82.12
14295;BME280;7231;59.370;18.016;2023-04-05T13:00:27;102094.72;;;1.48;81.60
14295;BME280;7231;59.370;18.016;2023-04-05T13:02:56;102162.59;;;1.86;82.19
14295;BME280;7231;59.370;18.016;2023-04-05T13:05:29;102091.63;;;1.42;83.00
14295;BME280;7231;59.370;18.016;2023-04-05T13:07:57;102100.56;;;1.46;82.76
14295;BME280;7231;59.370;18.016;2023-04-05T13:10:25;102074.56;;;1.24;82.19
14295;BME280;7231;59.370;18.016;2023-04-05T13:12:53;102140.75;;;1.62;82.67